Time;durP1;ratioP1;P1;durP2;ratioP2;P2;SDS_P1;SDS_P2;PMS_P1;PMS_P2;Temp;Humidity;BMP_temperature;BMP_pressure;BME280_temperature;BME280_humidity;BME280_pressure;Samples;Min_cycle;Max_cycle;Signal;HPM_P1;HPM_P2
2022/08/20 00:01:09;;;;;;;4.20;3.80;;;20.90;84.40;;;;;;5029886;28;20538;-72
2022/08/20 00:03:38;;;;;;;4.18;3.85;;;20.90;85.40;;;;;;5030423;28;20509;-72
2022/08/20 00:06:08;;;;;;;4.80;4.28;;;20.90;84.60;;;;;;5029096;28;20553;-73
2022/08/20 00:08:36;;;;;;;4.03;3.72;;;20.90;84.30;;;;;;5030799;28;20784;-72
2022/08/20 00:11:06;;;;;;;3.80;3.50;;;20.90;84.50;;;;;;5027439;28;20525;-73
2022/08/20 00:13:44;;;;;;;4.63;4.10;;;20.90;84.80;;;;;;5026931;28;20494;-73
2022/08/20 00:16:12;;;;;;;5.00;4.60;;;21.00;84.30;;;;;;5029018;28;20514;-73
2022/08/20 00:18:40;;;;;;;5.68;5.07;;;20.90;84.10;;;;;;5031412;28;20984;-73
2022/08/20 00:21:13;;;;;;;5.50;5.00;;;20.90;84.50;;;;;;5030284;28;20435;-73
2022/08/20 00:23:44;;;;;;;5.70;5.10;;;20.80;84.70;;;;;;5038498;28;20441;-73
2022/08/20 00:26:13;;;;;;;5.20;4.70;;;20.80;85.00;;;;;;5044302;28;20427;-72
2022/08/20 00:28:41;;;;;;;5.10;4.70;;;20.80;85.10;;;;;;5045866;28;20503;-73
2022/08/20 00:31:09;;;;;;;4.90;4.60;;;20.70;84.60;;;;;;5051378;28;20450;-74
2022/08/20 00:33:37;;;;;;;5.85;5.40;;;20.70;85.40;;;;;;5048389;28;20455;-73
2022/08/20 00:36:08;;;;;;;5.43;4.90;;;20.60;86.00;;;;;;5050068;28;20415;-74
2022/08/20 00:38:36;;;;;;;5.78;5.38;;;20.50;86.30;;;;;;5051447;28;20415;-73
2022/08/20 00:41:03;;;;;;;6.00;5.50;;;20.50;87.00;;;;;;5050139;28;20461;-72
2022/08/20 00:43:35;;;;;;;6.25;5.80;;;20.40;87.20;;;;;;5043757;28;20458;-72
2022/08/20 00:46:05;;;;;;;6.00;5.50;;;20.30;87.60;;;;;;5044537;28;20443;-72
2022/08/20 00:48:35;;;;;;;6.72;6.13;;;20.20;88.20;;;;;;5051197;28;20462;-73
2022/08/20 00:51:06;;;;;;;5.93;5.45;;;20.20;88.40;;;;;;5050850;28;20961;-74
2022/08/20 00:53:35;;;;;;;6.10;5.60;;;20.20;88.80;;;;;;5029496;28;20469;-73
2022/08/20 00:56:03;;;;;;;5.40;5.00;;;20.10;88.30;;;;;;5030633;28;20426;-72
2022/08/20 00:58:32;;;;;;;5.90;5.40;;;20.10;88.90;;;;;;5029428;28;20536;-72
2022/08/20 01:00:59;;;;;;;6.78;6.18;;;20.10;89.00;;;;;;5028764;28;20442;-72
2022/08/20 01:03:26;;;;;;;6.63;6.03;;;20.10;89.90;;;;;;5029858;28;20430;-72
2022/08/20 01:05:53;;;;;;;6.20;5.53;;;20.00;89.00;;;;;;5027453;28;20437;-71
2022/08/20 01:08:25;;;;;;;6.60;6.00;;;19.90;89.10;;;;;;5029039;28;20488;-72
2022/08/20 01:11:06;;;;;;;5.82;5.40;;;19.90;88.80;;;;;;5028750;28;20474;-72
2022/08/20 01:13:36;;;;;;;6.68;6.07;;;19.90;88.80;;;;;;5029315;28;20439;-72
2022/08/20 01:16:06;;;;;;;6.25;5.70;;;19.90;89.10;;;;;;5025794;28;20524;-73
2022/08/20 01:18:33;;;;;;;5.40;5.00;;;19.90;89.70;;;;;;5028982;28;20431;-73
2022/08/20 01:21:03;;;;;;;5.80;5.30;;;19.90;89.80;;;;;;5027929;28;20932;-73
2022/08/20 01:23:38;;;;;;;5.60;5.20;;;19.90;90.00;;;;;;5027400;28;20453;-72
2022/08/20 01:26:10;;;;;;;6.57;5.80;;;19.90;89.70;;;;;;5022082;28;20526;-72
2022/08/20 01:28:42;;;;;;;6.00;5.50;;;19.80;89.70;;;;;;5027837;28;21083;-74
2022/08/20 01:31:11;;;;;;;6.50;5.70;;;19.80;89.60;;;;;;5027909;28;20442;-72
2022/08/20 01:33:38;;;;;;;7.10;6.60;;;19.80;89.40;;;;;;5027100;28;20679;-72
2022/08/20 01:36:06;;;;;;;6.80;6.20;;;19.70;89.80;;;;;;5026778;28;20439;-72
2022/08/20 01:38:34;;;;;;;7.55;6.85;;;19.60;89.60;;;;;;5028086;28;20434;-71
2022/08/20 01:41:14;;;;;;;6.70;6.10;;;19.60;90.10;;;;;;5027456;28;20776;-72
2022/08/20 01:43:41;;;;;;;6.35;5.75;;;19.50;90.20;;;;;;5027814;28;20489;-72
2022/08/20 01:46:09;;;;;;;5.45;5.03;;;19.50;90.30;;;;;;5027205;28;20430;-73
2022/08/20 01:48:37;;;;;;;6.30;5.70;;;19.50;90.30;;;;;;5021844;28;20431;-72
2022/08/20 01:51:08;;;;;;;5.63;5.13;;;19.40;90.20;;;;;;5026421;28;20442;-72
2022/08/20 01:53:38;;;;;;;5.60;5.10;;;19.40;90.30;;;;;;5027804;28;20911;-72
2022/08/20 01:56:08;;;;;;;5.13;4.63;;;19.30;90.30;;;;;;5026792;28;20545;-72
2022/08/20 01:58:42;;;;;;;5.18;4.78;;;19.30;90.40;;;;;;5025849;28;20942;-73
2022/08/20 02:01:19;;;;;;;5.57;5.07;;;19.30;90.30;;;;;;5027544;28;20521;-72
2022/08/20 02:03:46;;;;;;;5.50;5.00;;;19.30;90.40;;;;;;5024213;28;20431;-73
2022/08/20 02:06:13;;;;;;;5.13;4.72;;;19.20;90.40;;;;;;5025486;28;20427;-73
2022/08/20 02:08:39;;;;;;;5.22;4.82;;;19.20;90.30;;;;;;5027186;28;20439;-71
2022/08/20 02:11:07;;;;;;;6.00;5.40;;;19.30;90.30;;;;;;5026443;28;20951;-72
2022/08/20 02:13:34;;;;;;;4.83;4.43;;;19.20;90.40;;;;;;5025702;28;20441;-72
2022/08/20 02:16:02;;;;;;;5.20;4.80;;;19.20;90.40;;;;;;5025792;28;20812;-73
2022/08/20 02:18:29;;;;;;;6.20;5.70;;;19.20;90.50;;;;;;5027085;28;20519;-73
2022/08/20 02:20:56;;;;;;;6.07;5.18;;;19.20;90.50;;;;;;5027492;28;20442;-72
2022/08/20 02:23:23;;;;;;;6.28;4.75;;;19.20;90.40;;;;;;5028021;28;20435;-72
2022/08/20 02:25:50;;;;;;;5.60;5.00;;;19.10;90.40;;;;;;5027801;28;20496;-73
2022/08/20 02:28:19;;;;;;;5.40;4.90;;;19.10;90.40;;;;;;5027386;28;20430;-72
2022/08/20 02:30:50;;;;;;;6.13;5.30;;;19.10;90.60;;;;;;5027441;28;20449;-73
2022/08/20 02:33:20;;;;;;;5.72;5.15;;;19.10;90.40;;;;;;5027971;28;20430;-73
2022/08/20 02:35:49;;;;;;;5.13;4.70;;;19.10;90.40;;;;;;5023826;28;20836;-72
2022/08/20 02:38:17;;;;;;;5.43;4.93;;;19.10;90.60;;;;;;5028763;28;20502;-72
2022/08/20 02:40:45;;;;;;;5.60;5.10;;;19.10;90.70;;;;;;5028497;28;20445;-73
2022/08/20 02:43:13;;;;;;;5.97;5.30;;;19.10;90.80;;;;;;5028724;28;20514;-72
2022/08/20 02:45:43;;;;;;;6.18;5.60;;;19.00;90.90;;;;;;5026468;28;20500;-71
2022/08/20 02:48:17;;;;;;;6.50;6.00;;;19.00;91.10;;;;;;5028219;28;20477;-72
2022/08/20 02:50:45;;;;;;;6.22;5.63;;;19.00;91.20;;;;;;5028208;28;20423;-72
2022/08/20 02:53:12;;;;;;;6.80;6.20;;;19.00;91.30;;;;;;5032266;28;20449;-72
2022/08/20 02:55:39;;;;;;;6.55;6.05;;;19.00;91.30;;;;;;5034378;28;20507;-72
2022/08/20 02:58:06;;;;;;;6.50;5.90;;;19.10;91.40;;;;;;5031654;28;20859;-71
2022/08/20 03:00:33;;;;;;;6.50;6.00;;;19.10;91.40;;;;;;5027313;28;20434;-73
2022/08/20 03:03:01;;;;;;;6.53;6.03;;;19.10;91.30;;;;;;5027468;28;20462;-72
2022/08/20 03:05:28;;;;;;;6.53;6.03;;;19.20;91.20;;;;;;5025637;28;20514;-73
2022/08/20 03:07:57;;;;;;;6.40;5.90;;;19.20;91.00;;;;;;5027467;28;20429;-73
2022/08/20 03:10:24;;;;;;;6.28;5.80;;;19.20;90.80;;;;;;5027403;28;20434;-72
2022/08/20 03:12:51;;;;;;;6.00;5.50;;;19.20;90.90;;;;;;5026473;28;20454;-72
2022/08/20 03:15:19;;;;;;;6.40;5.80;;;19.20;90.70;;;;;;5025776;28;20439;-72
2022/08/20 03:17:47;;;;;;;6.77;6.10;;;19.20;90.70;;;;;;5027092;28;20967;-73
2022/08/20 03:20:14;;;;;;;6.30;5.70;;;19.20;90.70;;;;;;5027171;28;20525;-72
2022/08/20 03:22:41;;;;;;;6.00;5.50;;;19.20;90.80;;;;;;5027164;28;20438;-72
2022/08/20 03:25:10;;;;;;;6.07;5.68;;;19.20;90.80;;;;;;5026601;28;20476;-72
2022/08/20 03:27:38;;;;;;;5.40;5.00;;;19.20;90.80;;;;;;5028595;28;20426;-73
2022/08/20 03:30:10;;;;;;;5.40;4.90;;;19.30;90.60;;;;;;5031517;28;21114;-72
2022/08/20 03:32:38;;;;;;;4.80;4.40;;;19.20;90.50;;;;;;5030789;28;20497;-72
2022/08/20 03:35:07;;;;;;;5.20;4.80;;;19.20;90.40;;;;;;5031626;28;20486;-71
2022/08/20 03:37:35;;;;;;;4.95;4.57;;;19.20;90.40;;;;;;5030740;28;20505;-71
2022/08/20 03:40:07;;;;;;;4.45;4.05;;;19.20;90.50;;;;;;5028741;28;20437;-73
2022/08/20 03:42:35;;;;;;;4.30;3.90;;;19.30;90.20;;;;;;5031010;28;20529;-71
2022/08/20 03:45:02;;;;;;;3.45;3.25;;;19.30;90.40;;;;;;5029665;28;20433;-71
2022/08/20 03:47:29;;;;;;;3.70;3.30;;;19.30;90.00;;;;;;5030333;28;20438;-73
2022/08/20 03:49:58;;;;;;;3.50;3.20;;;19.40;89.30;;;;;;5030582;28;20929;-74
2022/08/20 03:52:27;;;;;;;4.47;3.97;;;19.40;89.10;;;;;;5031749;28;20415;-73
2022/08/20 03:54:54;;;;;;;4.73;4.33;;;19.50;89.10;;;;;;5028793;28;20437;-72
2022/08/20 03:57:21;;;;;;;4.30;3.90;;;19.50;88.80;;;;;;5029920;28;20915;-73
2022/08/20 03:59:50;;;;;;;4.75;4.35;;;19.50;88.90;;;;;;5030999;28;20795;-73
2022/08/20 04:02:17;;;;;;;4.55;4.15;;;19.50;90.00;;;;;;5031428;28;20437;-73
2022/08/20 04:04:44;;;;;;;4.05;3.75;;;19.40;88.70;;;;;;5040911;28;20462;-73
2022/08/20 04:07:12;;;;;;;3.70;3.40;;;19.40;89.00;;;;;;5051010;28;20486;-74
2022/08/20 04:09:39;;;;;;;4.88;4.47;;;19.50;89.50;;;;;;5053442;28;20426;-73
2022/08/20 04:12:07;;;;;;;5.03;4.60;;;19.50;89.80;;;;;;5055860;28;20430;-73
2022/08/20 04:14:35;;;;;;;5.57;4.95;;;19.50;89.90;;;;;;5053338;28;20438;-73
2022/08/20 04:17:07;;;;;;;5.90;5.30;;;19.40;90.10;;;;;;5033454;28;20525;-72
2022/08/20 04:19:35;;;;;;;5.70;5.30;;;19.40;90.20;;;;;;5031516;28;20431;-73
2022/08/20 04:22:02;;;;;;;9.07;8.32;;;19.40;90.70;;;;;;5030261;28;20441;-73
2022/08/20 04:24:29;;;;;;;8.13;7.55;;;19.30;91.10;;;;;;5030759;28;20776;-73
2022/08/20 04:26:56;;;;;;;8.73;8.02;;;19.20;91.30;;;;;;5029933;28;20971;-74
2022/08/20 04:29:24;;;;;;;8.80;8.15;;;19.10;91.80;;;;;;5029018;28;20497;-73
2022/08/20 04:31:51;;;;;;;10.02;9.13;;;19.00;92.20;;;;;;5032324;28;20514;-73
2022/08/20 04:34:20;;;;;;;9.40;8.60;;;18.90;92.90;;;;;;5031074;28;21089;-71
2022/08/20 04:36:48;;;;;;;10.05;9.23;;;18.80;93.30;;;;;;5029499;28;20848;-71
2022/08/20 04:39:15;;;;;;;10.98;9.98;;;18.70;93.60;;;;;;5029041;28;20442;-71
2022/08/20 04:41:41;;;;;;;12.23;11.15;;;18.70;94.10;;;;;;5016985;28;20510;-71
2022/08/20 04:44:09;;;;;;;12.97;11.77;;;18.60;94.40;;;;;;5025425;28;20518;-72
2022/08/20 04:46:37;;;;;;;12.38;11.38;;;18.60;94.80;;;;;;5024643;28;20462;-72
2022/08/20 04:49:04;;;;;;;13.13;11.93;;;18.60;94.80;;;;;;5025791;28;20537;-72
2022/08/20 04:51:33;;;;;;;12.70;11.60;;;18.60;94.90;;;;;;5026939;28;20430;-73
2022/08/20 04:54:02;;;;;;;15.60;14.20;;;18.50;94.90;;;;;;5026386;28;20427;-72
2022/08/20 04:56:33;;;;;;;15.18;13.88;;;18.50;95.30;;;;;;5063682;22;20451;-72
2022/08/20 04:59:01;;;;;;;16.40;14.80;;;18.50;95.80;;;;;;5054812;28;20516;-73
2022/08/20 05:01:28;;;;;;;12.35;11.25;;;18.60;96.30;;;;;;5056213;28;20435;-73
2022/08/20 05:03:56;;;;;;;10.73;9.73;;;18.60;96.20;;;;;;5056950;28;20510;-72
2022/08/20 05:06:25;;;;;;;10.23;9.43;;;18.50;96.20;;;;;;5053970;28;20530;-72
2022/08/20 05:08:53;;;;;;;11.77;10.77;;;18.40;96.10;;;;;;5048203;28;20512;-72
2022/08/20 05:11:20;;;;;;;11.18;10.18;;;18.40;96.20;;;;;;5046715;28;20448;-71
2022/08/20 05:13:49;;;;;;;14.25;12.95;;;18.40;96.20;;;;;;5043870;28;20435;-71
2022/08/20 05:16:16;;;;;;;14.63;13.32;;;18.50;96.30;;;;;;5048654;28;20742;-70
2022/08/20 05:18:44;;;;;;;16.67;15.17;;;18.50;96.30;;;;;;5055515;28;20558;-70
2022/08/20 05:21:11;;;;;;;18.80;17.00;;;18.50;96.30;;;;;;5056287;28;20435;-70
2022/08/20 05:23:41;;;;;;;21.40;19.40;;;18.40;96.10;;;;;;5053647;28;20458;-70
2022/08/20 05:26:10;;;;;;;21.27;19.17;;;18.40;95.90;;;;;;5054374;28;20441;-71
2022/08/20 05:28:39;;;;;;;23.88;21.58;;;18.40;95.90;;;;;;5059320;28;20652;-70
2022/08/20 05:31:08;;;;;;;24.27;21.98;;;18.40;96.00;;;;;;5057540;28;20435;-70
2022/08/20 05:33:36;;;;;;;24.30;22.00;;;18.40;96.00;;;;;;5052464;28;20465;-70
2022/08/20 05:36:05;;;;;;;25.38;23.17;;;18.50;95.90;;;;;;5051443;28;20464;-70
2022/08/20 05:38:34;;;;;;;26.45;23.95;;;18.40;95.80;;;;;;5054299;28;20434;-70
2022/08/20 05:41:00;;;;;;;26.70;24.30;;;18.40;95.70;;;;;;5053420;28;20428;-70
2022/08/20 05:43:29;;;;;;;26.88;24.45;;;18.40;95.60;;;;;;5053870;28;20449;-70
2022/08/20 05:45:57;;;;;;;27.20;24.80;;;18.40;95.50;;;;;;5048803;28;20429;-70
2022/08/20 05:48:25;;;;;;;29.05;26.23;;;18.40;95.50;;;;;;5050457;28;20427;-70
2022/08/20 05:50:54;;;;;;;27.15;24.63;;;18.40;95.50;;;;;;5053266;28;20940;-70
2022/08/20 05:53:23;;;;;;;27.30;24.90;;;18.40;95.60;;;;;;5053417;28;20536;-70
2022/08/20 05:55:51;;;;;;;27.15;24.67;;;18.40;95.50;;;;;;5053627;28;20502;-71
2022/08/20 05:58:21;;;;;;;27.65;25.23;;;18.40;95.50;;;;;;5056839;28;20419;-70
2022/08/20 06:00:50;;;;;;;26.23;23.92;;;18.40;95.50;;;;;;5050390;28;20518;-70
2022/08/20 06:06:02;;;;;;;25.87;23.30;;;18.40;95.30;;;;;;5053753;28;20523;-70
2022/08/20 06:08:29;;;;;;;26.35;23.95;;;18.40;94.90;;;;;;5055072;28;20862;-70
2022/08/20 06:10:56;;;;;;;24.55;22.55;;;18.40;94.90;;;;;;5053584;28;20491;-70
2022/08/20 06:13:23;;;;;;;25.35;23.25;;;18.40;94.60;;;;;;5050230;28;20524;-69
2022/08/20 06:15:51;;;;;;;24.50;22.40;;;18.30;94.30;;;;;;5052969;28;20812;-69
2022/08/20 06:18:18;;;;;;;25.95;23.85;;;18.30;94.50;;;;;;5055977;28;20416;-69
2022/08/20 06:20:45;;;;;;;27.23;24.92;;;18.30;94.40;;;;;;5054542;28;20842;-69
2022/08/20 06:23:12;;;;;;;24.95;22.83;;;18.30;94.40;;;;;;5053025;28;20542;-69
2022/08/20 06:25:40;;;;;;;26.08;23.77;;;18.30;94.40;;;;;;5055571;28;20882;-70
2022/08/20 06:28:07;;;;;;;26.15;24.05;;;18.30;94.20;;;;;;5053883;28;20433;-70
2022/08/20 06:30:33;;;;;;;26.55;24.35;;;18.30;94.30;;;;;;5048838;28;20439;-70
2022/08/20 06:33:02;;;;;;;25.10;22.92;;;18.20;94.10;;;;;;5051483;28;20480;-70
2022/08/20 06:35:29;;;;;;;25.40;23.05;;;18.30;94.10;;;;;;5055066;28;20423;-70
2022/08/20 06:37:59;;;;;;;26.08;23.77;;;18.30;93.60;;;;;;5056757;28;20411;-70
2022/08/20 06:40:28;;;;;;;25.05;22.95;;;18.30;93.70;;;;;;5057043;28;20476;-69
2022/08/20 06:42:56;;;;;;;25.63;23.33;;;18.40;93.80;;;;;;5055021;28;20439;-69
2022/08/20 06:45:25;;;;;;;25.17;23.17;;;18.40;93.70;;;;;;5052597;28;20431;-69
2022/08/20 06:47:53;;;;;;;25.55;23.25;;;18.40;93.30;;;;;;5054550;28;20458;-70
2022/08/20 06:50:24;;;;;;;23.63;21.73;;;18.50;93.30;;;;;;5054380;28;20594;-70
2022/08/20 06:52:51;;;;;;;24.23;22.02;;;18.50;92.90;;;;;;5056064;28;20433;-70
2022/08/20 06:55:18;;;;;;;23.55;21.60;;;18.50;93.00;;;;;;5057271;28;20423;-69
2022/08/20 06:57:47;;;;;;;23.00;21.00;;;18.50;92.90;;;;;;5057342;28;20426;-70
2022/08/20 07:00:16;;;;;;;22.58;20.77;;;18.60;92.40;;;;;;5051514;28;20856;-70
2022/08/20 07:02:43;;;;;;;21.75;19.88;;;18.60;92.30;;;;;;5052721;28;20436;-69
2022/08/20 07:05:10;;;;;;;21.27;19.58;;;18.60;92.10;;;;;;5052882;28;20508;-69
2022/08/20 07:07:39;;;;;;;20.52;18.83;;;18.70;91.90;;;;;;5056766;28;20440;-69
2022/08/20 07:10:07;;;;;;;20.77;19.00;;;18.60;91.80;;;;;;5057474;28;20807;-69
2022/08/20 07:12:35;;;;;;;20.42;18.75;;;18.60;91.60;;;;;;5057140;28;20537;-68
2022/08/20 07:15:03;;;;;;;18.08;16.70;;;18.70;92.30;;;;;;5055088;28;20514;-70
2022/08/20 07:17:29;;;;;;;19.80;18.13;;;18.80;91.10;;;;;;5053739;28;20448;-69
2022/08/20 07:19:56;;;;;;;18.90;17.40;;;18.80;91.10;;;;;;5056443;28;20416;-69
2022/08/20 07:22:24;;;;;;;18.85;17.45;;;18.80;91.00;;;;;;5057416;28;20482;-69
2022/08/20 07:24:52;;;;;;;17.75;16.35;;;18.80;90.80;;;;;;5055420;28;20427;-69
2022/08/20 07:27:23;;;;;;;17.97;16.50;;;18.80;89.90;;;;;;5054089;28;20429;-68
2022/08/20 07:32:35;;;;;;;18.58;16.98;;;18.80;90.10;;;;;;5059796;28;20409;-69
2022/08/20 07:35:05;;;;;;;18.13;16.73;;;19.00;88.20;;;;;;5057848;28;21059;-70
2022/08/20 07:37:32;;;;;;;17.33;15.93;;;19.00;88.80;;;;;;5058363;28;20883;-71
2022/08/20 07:40:01;;;;;;;18.60;17.10;;;19.10;86.80;;;;;;5058440;28;20468;-71
2022/08/20 07:42:28;;;;;;;17.20;15.80;;;19.00;87.20;;;;;;5058563;28;20631;-73
2022/08/20 07:44:55;;;;;;;16.23;14.85;;;19.10;87.50;;;;;;5056644;28;20437;-69
2022/08/20 07:47:22;;;;;;;16.25;14.85;;;19.30;87.20;;;;;;5054476;28;20441;-72
2022/08/20 07:49:48;;;;;;;15.63;14.32;;;19.70;84.20;;;;;;5050013;28;20425;-69
2022/08/20 07:52:15;;;;;;;14.93;13.70;;;19.90;83.90;;;;;;5050714;28;21011;-73
2022/08/20 07:54:42;;;;;;;15.07;13.87;;;20.00;82.40;;;;;;5049175;28;20461;-73
2022/08/20 07:57:11;;;;;;;13.65;12.45;;;20.20;81.00;;;;;;5053622;28;20780;-71
2022/08/20 07:59:38;;;;;;;12.77;11.68;;;20.40;80.90;;;;;;5050071;28;20438;-73
2022/08/20 08:02:05;;;;;;;11.73;10.70;;;20.50;79.10;;;;;;5050050;28;20442;-72
2022/08/20 08:04:32;;;;;;;11.70;10.70;;;20.50;77.20;;;;;;5046672;28;20436;-69
2022/08/20 08:06:59;;;;;;;10.90;10.10;;;20.50;77.70;;;;;;5050632;28;20560;-70
2022/08/20 08:09:27;;;;;;;10.82;9.82;;;20.70;76.40;;;;;;5047795;28;20505;-72
2022/08/20 08:11:56;;;;;;;11.30;10.40;;;20.70;75.90;;;;;;5051622;28;20461;-72
2022/08/20 08:14:28;;;;;;;10.80;10.00;;;20.60;76.00;;;;;;5047825;28;20433;-72
2022/08/20 08:16:57;;;;;;;12.55;11.55;;;20.60;77.00;;;;;;5049422;28;20433;-73
2022/08/20 08:19:26;;;;;;;11.63;10.63;;;20.70;76.20;;;;;;5049285;28;20992;-72
2022/08/20 08:21:53;;;;;;;12.60;11.60;;;20.80;77.10;;;;;;5047376;28;20433;-72
2022/08/20 08:24:20;;;;;;;12.23;11.23;;;21.00;75.00;;;;;;5052482;28;20435;-72
2022/08/20 08:26:48;;;;;;;11.35;10.55;;;21.00;74.70;;;;;;5053288;28;20431;-72
2022/08/20 08:29:15;;;;;;;12.07;11.18;;;21.00;74.90;;;;;;5052361;28;20461;-71
2022/08/20 08:31:43;;;;;;;13.27;12.27;;;20.90;75.70;;;;;;5049828;28;20440;-72
2022/08/20 08:34:10;;;;;;;13.77;12.73;;;20.90;76.60;;;;;;5047047;28;21112;-73
2022/08/20 08:36:38;;;;;;;14.05;12.95;;;21.00;75.40;;;;;;5045041;28;20558;-71
2022/08/20 08:39:05;;;;;;;12.37;11.43;;;21.00;75.20;;;;;;5049911;28;20538;-72
2022/08/20 08:41:35;;;;;;;12.73;11.82;;;21.00;75.70;;;;;;5053899;28;20488;-72
2022/08/20 08:44:08;;;;;;;13.20;12.20;;;21.00;76.50;;;;;;5047324;28;20467;-72
2022/08/20 08:46:39;;;;;;;13.00;12.00;;;20.90;74.50;;;;;;5041745;28;20915;-71
2022/08/20 08:49:12;;;;;;;13.10;12.00;;;20.80;74.70;;;;;;5049195;28;20441;-69
2022/08/20 08:51:42;;;;;;;12.35;11.30;;;20.50;75.60;;;;;;5052798;28;20444;-69
2022/08/20 08:54:15;;;;;;;13.43;12.23;;;20.20;77.10;;;;;;5053276;28;20434;-68
2022/08/20 08:56:43;;;;;;;13.80;12.50;;;20.30;77.20;;;;;;5054105;28;20438;-69
2022/08/20 08:59:10;;;;;;;11.43;10.52;;;20.30;76.30;;;;;;5052157;28;20488;-68
2022/08/20 09:01:44;;;;;;;12.68;11.52;;;20.40;77.40;;;;;;5051267;28;20511;-68
2022/08/20 09:04:13;;;;;;;12.65;11.55;;;20.50;77.30;;;;;;5052999;28;20535;-69
2022/08/20 09:06:42;;;;;;;12.70;11.60;;;20.60;75.50;;;;;;5052673;28;20431;-68
2022/08/20 09:09:17;;;;;;;12.23;11.23;;;20.50;76.20;;;;;;5051234;28;20431;-69
2022/08/20 09:11:47;;;;;;;12.10;11.00;;;20.60;74.50;;;;;;5053568;28;20754;-69
2022/08/20 09:14:13;;;;;;;11.07;10.07;;;20.60;75.00;;;;;;5049792;28;20445;-68
2022/08/20 09:16:40;;;;;;;10.65;9.65;;;20.60;75.90;;;;;;5051927;28;20428;-69
2022/08/20 09:19:07;;;;;;;11.00;10.10;;;20.80;74.70;;;;;;5050621;28;20441;-69
2022/08/20 09:21:35;;;;;;;12.30;11.00;;;20.80;74.40;;;;;;5056101;28;20852;-69
2022/08/20 09:24:03;;;;;;;11.50;10.50;;;20.70;73.80;;;;;;5049470;28;20501;-68
2022/08/20 09:26:30;;;;;;;11.13;10.02;;;20.70;74.90;;;;;;5048637;28;20519;-68
2022/08/20 09:28:57;;;;;;;10.55;9.65;;;20.80;75.70;;;;;;5053233;28;20445;-66
2022/08/20 09:31:24;;;;;;;10.73;9.73;;;20.90;75.10;;;;;;5054102;28;20444;-70
2022/08/20 09:33:51;;;;;;;12.23;11.10;;;21.10;74.20;;;;;;5057530;28;20822;-68
2022/08/20 09:36:18;;;;;;;12.80;11.50;;;21.20;71.40;;;;;;5052381;28;20432;-68
2022/08/20 09:38:46;;;;;;;11.90;10.80;;;21.20;71.40;;;;;;5053161;28;20435;-68
2022/08/20 09:41:13;;;;;;;12.07;11.05;;;21.10;71.90;;;;;;5053621;28;20432;-68
2022/08/20 09:43:40;;;;;;;12.70;11.60;;;21.10;71.80;;;;;;5049088;28;20441;-66
2022/08/20 09:46:06;;;;;;;10.70;9.77;;;21.10;72.70;;;;;;5039622;28;20433;-67
2022/08/20 09:48:33;;;;;;;11.50;10.50;;;21.10;74.00;;;;;;5041402;28;20436;-66
2022/08/20 09:51:01;;;;;;;12.88;11.60;;;21.20;74.60;;;;;;5039191;28;20459;-67
2022/08/20 09:53:28;;;;;;;12.15;11.23;;;21.30;72.70;;;;;;5041570;28;20554;-68
2022/08/20 09:55:57;;;;;;;14.38;12.98;;;21.30;72.00;;;;;;5043738;28;20709;-68
2022/08/20 09:58:30;;;;;;;15.80;14.20;;;21.20;72.00;;;;;;5041374;28;20464;-67
2022/08/20 10:00:58;;;;;;;15.77;14.43;;;20.90;73.00;;;;;;5038416;28;20421;-68
2022/08/20 10:03:25;;;;;;;14.40;13.00;;;20.80;73.90;;;;;;5042408;28;20544;-67
2022/08/20 10:05:52;;;;;;;15.52;14.02;;;20.70;75.40;;;;;;5034752;28;20433;-66
2022/08/20 10:08:18;;;;;;;17.27;15.67;;;20.70;75.00;;;;;;5036125;28;20440;-68
2022/08/20 10:10:45;;;;;;;16.90;15.40;;;20.60;74.30;;;;;;5044506;28;21221;-67
2022/08/20 10:13:13;;;;;;;15.00;13.63;;;20.40;75.20;;;;;;5037475;28;20436;-71
2022/08/20 10:15:40;;;;;;;14.40;13.00;;;20.40;75.20;;;;;;5033453;28;20466;-71
2022/08/20 10:18:07;;;;;;;12.40;11.40;;;20.40;75.30;;;;;;5041361;28;20451;-71
2022/08/20 10:20:34;;;;;;;10.60;9.80;;;20.50;73.20;;;;;;5035864;28;20674;-72
2022/08/20 10:23:02;;;;;;;10.50;9.60;;;20.60;72.80;;;;;;5031779;28;20437;-71
2022/08/20 10:25:29;;;;;;;10.38;9.38;;;20.50;73.00;;;;;;5039899;28;20527;-71
2022/08/20 10:27:55;;;;;;;10.40;9.30;;;20.70;72.60;;;;;;5041037;28;20437;-71
2022/08/20 10:30:24;;;;;;;11.52;10.48;;;20.80;72.20;;;;;;5036015;28;20806;-70
2022/08/20 10:32:50;;;;;;;10.90;9.90;;;20.90;71.90;;;;;;5050864;28;20430;-70
2022/08/20 10:35:18;;;;;;;11.27;10.27;;;21.00;71.30;;;;;;5038539;28;20763;-71
2022/08/20 10:37:45;;;;;;;10.32;9.60;;;21.10;70.90;;;;;;5045626;28;20434;-70
2022/08/20 10:40:14;;;;;;;11.23;10.23;;;21.20;71.20;;;;;;5034979;28;20515;-70
2022/08/20 10:42:41;;;;;;;11.77;10.52;;;21.30;71.10;;;;;;5035898;28;20535;-70
2022/08/20 10:45:09;;;;;;;11.93;10.73;;;21.30;71.50;;;;;;5036724;28;20433;-70
2022/08/20 10:47:39;;;;;;;11.25;9.80;;;21.20;72.10;;;;;;5035030;28;20596;-70
2022/08/20 10:50:09;;;;;;;11.10;9.43;;;21.40;72.30;;;;;;5039683;28;20844;-71
2022/08/20 10:52:36;;;;;;;10.73;9.73;;;21.60;71.00;;;;;;5037906;28;20425;-71
2022/08/20 10:55:03;;;;;;;10.18;9.18;;;21.70;71.70;;;;;;5042000;28;20459;-71
2022/08/20 10:57:32;;;;;;;10.50;9.40;;;22.00;70.10;;;;;;5063315;22;20440;-74
2022/08/20 11:00:00;;;;;;;9.43;8.23;;;22.20;67.70;;;;;;5050231;28;20429;-74
2022/08/20 11:02:28;;;;;;;9.80;8.90;;;22.30;68.70;;;;;;5047789;28;20450;-75
2022/08/20 11:04:56;;;;;;;11.50;8.80;;;22.30;68.80;;;;;;5045770;28;20437;-75
2022/08/20 11:07:27;;;;;;;9.15;8.20;;;22.30;67.00;;;;;;5048220;28;20807;-73
2022/08/20 11:09:54;;;;;;;9.18;8.27;;;22.30;67.40;;;;;;5039678;28;20534;-73
2022/08/20 11:12:22;;;;;;;8.90;8.10;;;22.50;66.80;;;;;;5058659;28;20435;-73
2022/08/20 11:14:50;;;;;;;8.30;7.35;;;22.80;65.70;;;;;;5064092;28;20451;-71
2022/08/20 11:17:20;;;;;;;8.25;7.47;;;23.00;65.50;;;;;;5056651;28;20446;-72
2022/08/20 11:19:47;;;;;;;8.40;7.60;;;23.20;63.10;;;;;;5039230;28;20433;-73
2022/08/20 11:22:15;;;;;;;8.68;7.20;;;23.00;63.50;;;;;;5035539;28;20791;-74
2022/08/20 11:24:43;;;;;;;7.83;7.03;;;23.00;62.10;;;;;;5036629;28;20520;-74
2022/08/20 11:27:13;;;;;;;8.82;7.18;;;23.00;62.70;;;;;;5037588;28;20452;-71
2022/08/20 11:29:40;;;;;;;6.63;5.70;;;23.40;61.50;;;;;;5036062;28;20441;-72
2022/08/20 11:32:07;;;;;;;7.63;6.70;;;23.80;61.40;;;;;;5036449;28;20429;-73
2022/08/20 11:34:34;;;;;;;7.80;6.20;;;24.30;58.20;;;;;;5037975;28;20431;-72
2022/08/20 11:37:01;;;;;;;6.32;5.05;;;24.20;58.00;;;;;;5032312;28;20431;-75
2022/08/20 11:39:29;;;;;;;5.60;5.10;;;24.10;59.70;;;;;;5036469;28;20513;-72
2022/08/20 11:41:56;;;;;;;5.32;4.43;;;23.90;56.90;;;;;;5036950;28;20608;-73
2022/08/20 11:44:23;;;;;;;6.22;5.10;;;23.90;57.60;;;;;;5032701;28;20437;-74
2022/08/20 11:46:50;;;;;;;5.97;5.40;;;24.10;57.20;;;;;;5034792;28;20518;-75
2022/08/20 11:49:17;;;;;;;6.72;5.60;;;24.10;57.60;;;;;;5037180;28;20437;-73
2022/08/20 11:51:44;;;;;;;6.70;6.00;;;24.20;59.30;;;;;;5041051;28;20439;-74
2022/08/20 11:54:10;;;;;;;9.25;6.40;;;24.40;59.30;;;;;;5037878;28;20423;-76
2022/08/20 11:56:38;;;;;;;7.75;6.78;;;24.80;57.80;;;;;;5037558;28;20452;-76
2022/08/20 11:59:05;;;;;;;7.20;6.50;;;25.00;55.30;;;;;;5054636;28;20428;-73
2022/08/20 12:01:32;;;;;;;8.77;7.88;;;24.80;56.20;;;;;;5037407;28;20469;-74
2022/08/20 12:03:59;;;;;;;8.30;7.50;;;24.40;56.70;;;;;;5039467;28;20440;-72
2022/08/20 12:06:26;;;;;;;8.10;7.35;;;24.20;57.00;;;;;;5041500;28;20711;-76
2022/08/20 12:08:52;;;;;;;7.10;6.40;;;24.10;57.50;;;;;;5036309;28;20460;-76
2022/08/20 12:11:19;;;;;;;8.40;7.50;;;24.40;57.80;;;;;;5041093;28;20512;-76
2022/08/20 12:13:47;;;;;;;7.30;6.70;;;24.80;54.50;;;;;;5038150;28;20431;-75
2022/08/20 12:16:16;;;;;;;7.78;7.07;;;24.50;54.20;;;;;;5044032;28;20429;-78
2022/08/20 12:18:43;;;;;;;6.55;5.95;;;24.70;55.50;;;;;;5038724;28;20936;-76
2022/08/20 12:21:11;;;;;;;7.68;6.90;;;25.00;56.10;;;;;;5038019;28;20429;-76
2022/08/20 12:23:38;;;;;;;6.72;6.13;;;25.20;55.80;;;;;;5045536;28;20441;-77
2022/08/20 12:26:06;;;;;;;8.90;8.10;;;25.30;55.90;;;;;;5039857;28;20431;-81
2022/08/20 12:28:33;;;;;;;8.65;7.75;;;25.30;52.20;;;;;;5048005;28;20429;-79
2022/08/20 12:31:01;;;;;;;8.30;7.60;;;25.20;52.40;;;;;;5050332;28;20439;-78
2022/08/20 12:33:28;;;;;;;8.40;7.80;;;25.00;52.00;;;;;;5049761;28;20512;-77
2022/08/20 12:35:54;;;;;;;8.32;7.55;;;25.10;53.80;;;;;;5042065;28;20439;-79
2022/08/20 12:38:21;;;;;;;7.72;7.13;;;25.10;54.70;;;;;;5048977;28;20439;-79
2022/08/20 12:40:48;;;;;;;7.80;7.20;;;25.10;53.40;;;;;;5049737;28;20429;-77
2022/08/20 12:43:15;;;;;;;9.35;8.38;;;25.10;53.10;;;;;;5050547;28;20811;-78
2022/08/20 12:45:42;;;;;;;8.35;7.65;;;25.00;52.40;;;;;;5045505;28;20819;-78
2022/08/20 12:48:12;;;;;;;10.07;9.27;;;25.00;53.50;;;;;;5046393;28;20431;-79